Time;durP1;ratioP1;P1;durP2;ratioP2;P2;SDS_P1;SDS_P2;PMS_P1;PMS_P2;Temp;Humidity;BMP_temperature;BMP_pressure;BME280_temperature;BME280_humidity;BME280_pressure;Samples;Min_cycle;Max_cycle;Signal;HPM_P1;HPM_P2
2023/10/20 00:00:30;;;;;;;;;3.00;3.00;;;;;15.32;75.93;97024.16;5113471;28;8850;-58
2023/10/20 00:02:58;;;;;;;;;3.80;3.80;;;;;15.31;75.98;97017.97;5113125;28;8831;-56
2023/10/20 00:05:25;;;;;;;;;5.60;4.40;;;;;15.29;75.89;97019.19;5114222;28;8903;-58
2023/10/20 00:07:53;;;;;;;;;3.80;3.80;;;;;15.29;76.29;97008.47;5114776;28;8820;-60
2023/10/20 00:10:22;;;;;;;;;4.00;3.80;;;;;15.28;76.23;97017.56;5114251;28;8906;-58
2023/10/20 00:12:49;;;;;;;;;4.40;3.40;;;;;15.25;76.25;97021.50;5114900;28;9493;-59
2023/10/20 00:15:17;;;;;;;;;6.00;4.00;;;;;15.25;76.34;97012.66;5114448;28;8816;-58
2023/10/20 00:17:47;;;;;;;;;4.00;4.00;;;;;15.26;76.57;97008.94;5114301;28;8840;-58
2023/10/20 00:20:15;;;;;;;;;4.80;4.00;;;;;15.25;76.30;97008.09;5112919;28;8800;-59
2023/10/20 00:22:43;;;;;;;;;4.00;4.00;;;;;15.25;76.00;97012.66;5114539;28;8804;-58
2023/10/20 00:25:12;;;;;;;;;3.00;1.40;;;;;15.25;76.42;97002.75;5114804;28;9501;-57
2023/10/20 00:27:41;;;;;;;;;3.60;3.00;;;;;15.24;76.52;97011.81;5114899;28;8816;-59
2023/10/20 00:30:09;;;;;;;;;5.20;5.20;;;;;15.24;76.75;97014.50;5114053;28;8804;-57
2023/10/20 00:32:39;;;;;;;;;3.00;3.00;;;;;15.24;76.51;97008.34;5112025;28;8808;-57
2023/10/20 00:35:09;;;;;;;;;7.80;6.20;;;;;15.23;76.23;97004.84;5112876;28;8824;-57
2023/10/20 00:37:36;;;;;;;;;8.00;6.00;;;;;15.24;76.19;97005.66;5114744;28;8828;-59
2023/10/20 00:40:04;;;;;;;;;5.50;5.50;;;;;15.23;76.54;97002.16;5113919;28;8844;-59
2023/10/20 00:42:35;;;;;;;;;6.00;4.00;;;;;15.23;76.47;97002.16;5114686;28;8812;-59
2023/10/20 00:45:04;;;;;;;;;5.20;5.20;;;;;15.22;76.46;97003.19;5113795;28;8860;-57
2023/10/20 00:47:32;;;;;;;;;3.40;3.00;;;;;15.24;76.36;96997.63;5113763;28;8932;-60
2023/10/20 00:50:00;;;;;;;;;3.80;3.80;;;;;15.26;76.27;96987.50;5111902;28;8939;-56
2023/10/20 00:52:27;;;;;;;;;6.60;6.40;;;;;15.25;76.53;96992.00;5113909;28;8808;-58
2023/10/20 00:54:55;;;;;;;;;6.00;6.00;;;;;15.26;76.74;96987.50;5113864;28;8816;-57
2023/10/20 00:57:23;;;;;;;;;4.00;4.00;;;;;15.26;76.14;96992.84;5115068;28;8824;-58
2023/10/20 00:59:50;;;;;;;;;6.25;6.25;;;;;15.28;76.53;96985.41;5113903;28;8820;-58
2023/10/20 01:02:17;;;;;;;;;6.50;4.50;;;;;15.28;76.71;96972.00;5114065;28;8816;-58
2023/10/20 01:04:45;;;;;;;;;4.00;3.60;;;;;15.29;76.21;96968.25;5111815;28;8831;-57
2023/10/20 01:07:14;;;;;;;;;8.50;7.00;;;;;15.28;76.56;96963.94;5111198;28;8835;-56
2023/10/20 01:09:41;;;;;;;;;6.00;5.20;;;;;15.28;76.40;96966.63;5113678;28;8893;-57
2023/10/20 01:12:09;;;;;;;;;8.50;6.75;;;;;15.28;76.75;96950.53;5118031;28;8807;-58
2023/10/20 01:14:37;;;;;;;;;6.00;6.00;;;;;15.27;76.32;96938.19;5117727;28;8796;-57
2023/10/20 01:17:04;;;;;;;;;6.25;5.50;;;;;15.27;76.94;96930.13;5117953;28;9474;-60
2023/10/20 01:19:32;;;;;;;;;5.00;5.00;;;;;15.25;76.71;96921.50;5114793;28;8842;-57
2023/10/20 01:22:00;;;;;;;;;4.40;4.00;;;;;15.25;77.17;96914.25;5117943;28;8909;-58
2023/10/20 01:24:29;;;;;;;;;7.00;7.00;;;;;15.24;76.79;96901.91;5117112;28;8828;-57
2023/10/20 01:26:58;;;;;;;;;7.00;7.00;;;;;15.24;76.30;96893.06;5117521;28;8836;-57
2023/10/20 01:29:25;;;;;;;;;7.40;7.00;;;;;15.26;76.12;96893.66;5117489;28;8819;-59
2023/10/20 01:31:53;;;;;;;;;6.00;4.00;;;;;15.27;76.83;96887.25;5117076;28;8933;-57
2023/10/20 01:34:21;;;;;;;;;4.50;4.50;;;;;15.29;76.34;96893.19;5114732;28;8804;-58
2023/10/20 01:36:49;;;;;;;;;7.50;6.00;;;;;15.29;76.45;96885.16;5117731;28;8812;-57
2023/10/20 01:39:16;;;;;;;;;7.00;6.00;;;;;15.27;76.78;96882.72;5117310;28;8808;-57
2023/10/20 01:41:44;;;;;;;;;8.50;7.25;;;;;15.25;76.47;96878.63;5117974;28;8840;-58
2023/10/20 01:44:13;;;;;;;;;6.50;6.50;;;;;15.24;76.82;96879.66;5117735;28;8805;-57
2023/10/20 01:46:42;;;;;;;;;13.00;9.25;;;;;15.19;76.54;96874.97;5117230;28;8839;-57
2023/10/20 01:49:09;;;;;;;;;7.00;6.00;;;;;15.17;77.15;96869.00;5114946;28;8835;-57
2023/10/20 01:51:37;;;;;;;;;6.50;6.50;;;;;15.14;76.99;96877.50;5116988;28;8836;-57
2023/10/20 01:54:06;;;;;;;;;7.50;6.75;;;;;15.14;77.40;96868.63;5116520;28;8836;-56
2023/10/20 01:56:34;;;;;;;;;4.50;3.25;;;;;15.11;77.23;96872.56;5116844;28;8943;-59
2023/10/20 01:59:03;;;;;;;;;6.00;6.00;;;;;15.09;76.92;96868.50;5117454;28;8826;-56
2023/10/20 02:01:31;;;;;;;;;9.00;9.00;;;;;15.08;77.23;96867.69;5117580;28;8820;-58
2023/10/20 02:03:59;;;;;;;;;5.75;5.00;;;;;15.07;77.32;96857.19;5116714;28;8838;-60
2023/10/20 02:06:27;;;;;;;;;4.50;4.00;;;;;15.06;77.34;96858.22;5115011;28;8810;-60
2023/10/20 02:08:55;;;;;;;;;5.25;4.00;;;;;15.06;77.05;96863.59;5116382;28;8839;-58
2023/10/20 02:11:22;;;;;;;;;6.00;6.00;;;;;15.04;77.35;96855.78;5117165;28;8838;-59
2023/10/20 02:13:50;;;;;;;;;5.00;5.00;;;;;15.04;77.68;96839.72;5117243;28;8828;-58
2023/10/20 02:16:18;;;;;;;;;8.50;6.00;;;;;15.04;77.57;96837.03;5116618;28;8796;-59
2023/10/20 02:18:46;;;;;;;;;6.25;6.25;;;;;15.04;77.33;96833.53;5114699;28;8808;-58
2023/10/20 02:21:13;;;;;;;;;11.50;9.25;;;;;15.04;77.44;96826.31;5115965;28;8846;-59
2023/10/20 02:23:41;;;;;;;;;5.00;4.50;;;;;15.03;77.87;96821.97;5116832;28;8842;-58
2023/10/20 02:26:09;;;;;;;;;6.00;6.00;;;;;15.05;77.41;96829.78;5116367;28;9528;-57
2023/10/20 02:28:37;;;;;;;;;6.75;6.25;;;;;15.05;77.59;96819.06;5116391;28;8822;-58
2023/10/20 02:31:04;;;;;;;;;8.75;8.00;;;;;15.04;77.16;96818.28;5116469;28;8815;-57
2023/10/20 02:33:32;;;;;;;;;4.50;3.50;;;;;15.04;77.59;96812.06;5116121;28;8791;-57
2023/10/20 02:36:01;;;;;;;;;6.50;6.00;;;;;15.04;77.56;96802.19;5114609;28;8862;-57
2023/10/20 02:38:28;;;;;;;;;3.50;3.00;;;;;15.05;77.83;96803.00;5115909;28;8832;-58
2023/10/20 02:40:56;;;;;;;;;6.50;4.75;;;;;15.05;77.37;96797.63;5116348;28;8828;-58
2023/10/20 02:43:24;;;;;;;;;3.00;3.00;;;;;15.05;77.71;96797.63;5116441;28;8800;-58
2023/10/20 02:45:52;;;;;;;;;9.75;7.25;;;;;15.04;77.11;96801.34;5115968;28;8832;-59
2023/10/20 02:48:20;;;;;;;;;6.50;5.00;;;;;15.05;77.46;96795.78;5115248;28;8823;-60
2023/10/20 02:50:47;;;;;;;;;5.50;5.50;;;;;15.04;77.85;96785.28;5114977;28;8812;-58
2023/10/20 02:53:15;;;;;;;;;8.00;6.50;;;;;15.05;77.57;96778.88;5116604;28;8832;-59
2023/10/20 02:55:42;;;;;;;;;7.00;7.00;;;;;15.06;77.80;96783.19;5115987;28;8892;-60
2023/10/20 02:58:10;;;;;;;;;9.00;6.00;;;;;15.07;77.37;96779.44;5115783;28;8808;-60
2023/10/20 03:00:38;;;;;;;;;7.00;6.75;;;;;15.07;77.72;96779.44;5115595;28;8804;-60
2023/10/20 03:03:06;;;;;;;;;4.50;3.50;;;;;15.08;77.35;96775.72;5115254;28;8895;-59
2023/10/20 03:05:34;;;;;;;;;6.50;5.50;;;;;15.07;77.66;96763.38;5096518;28;8899;-58
2023/10/20 03:08:02;;;;;;;;;7.50;7.50;;;;;15.08;77.74;96754.28;5095467;28;8935;-59
2023/10/20 03:10:29;;;;;;;;;9.75;8.00;;;;;15.08;78.07;96743.56;5098430;28;8867;-60
2023/10/20 03:12:57;;;;;;;;;6.50;4.00;;;;;15.08;77.47;96736.34;5115714;28;8828;-59
2023/10/20 03:15:24;;;;;;;;;8.80;7.80;;;;;15.09;77.33;96734.50;5107954;28;8818;-58
2023/10/20 03:17:53;;;;;;;;;6.00;5.00;;;;;15.09;77.45;96724.56;5095743;28;8822;-58
2023/10/20 03:20:28;;;;;;;;;8.20;6.80;;;;;15.09;78.12;96723.78;5095776;28;8848;-58
2023/10/20 03:22:55;;;;;;;;;3.00;3.00;;;;;15.08;77.50;96725.63;5095825;28;8814;-59
2023/10/20 03:25:23;;;;;;;;;6.20;5.60;;;;;15.07;77.65;96717.81;5095628;28;8840;-58
2023/10/20 03:27:50;;;;;;;;;7.80;6.60;;;;;15.07;77.73;96709.75;5095800;28;8873;-58
2023/10/20 03:30:20;;;;;;;;;4.80;4.00;;;;;15.07;77.78;96701.72;5095634;28;8857;-59
2023/10/20 03:32:49;;;;;;;;;6.40;4.00;;;;;15.07;78.43;96699.03;5094180;28;8851;-58
2023/10/20 03:35:17;;;;;;;;;10.00;7.00;;;;;15.06;78.37;96694.72;5095548;28;9541;-58
2023/10/20 03:37:45;;;;;;;;;6.00;5.60;;;;;15.06;78.60;96681.34;5095098;28;8853;-58
2023/10/20 03:40:14;;;;;;;;;7.50;6.50;;;;;15.05;78.38;96660.94;5095453;28;9531;-60
2023/10/20 03:42:42;;;;;;;;;3.80;3.80;;;;;15.05;78.34;96658.28;5095558;28;8833;-60
2023/10/20 03:45:10;;;;;;;;;6.00;4.80;;;;;15.04;78.52;96648.59;5095352;28;8860;-60
2023/10/20 03:47:39;;;;;;;;;5.60;5.20;;;;;15.03;78.08;96657.69;5094960;28;8840;-58
2023/10/20 03:50:13;;;;;;;;;4.80;4.00;;;;;15.03;78.24;96655.00;5095491;28;8838;-58
2023/10/20 03:52:44;;;;;;;;;4.00;3.40;;;;;15.02;78.58;96658.75;5095530;28;8922;-57
2023/10/20 03:55:14;;;;;;;;;4.00;3.00;;;;;15.03;77.68;96652.34;5094307;28;8867;-58
2023/10/20 03:57:42;;;;;;;;;7.00;6.00;;;;;15.03;78.60;96657.69;5094350;28;8830;-58
2023/10/20 04:00:17;;;;;;;;;4.80;4.80;;;;;15.03;78.41;96650.44;5094708;28;8826;-59
2023/10/20 04:02:47;;;;;;;;;5.50;4.00;;;;;15.02;78.48;96642.66;5110564;28;8804;-60
2023/10/20 04:05:16;;;;;;;;;5.00;4.75;;;;;15.02;78.75;96634.63;5114214;28;8831;-58
2023/10/20 04:07:45;;;;;;;;;6.00;6.00;;;;;15.00;78.35;96634.00;5114191;28;8811;-59
2023/10/20 04:10:13;;;;;;;;;5.50;5.00;;;;;15.00;78.70;96639.38;5113820;28;8876;-57
2023/10/20 04:12:41;;;;;;;;;6.00;4.00;;;;;14.96;79.03;96639.00;5114334;28;8815;-57
2023/10/20 04:15:14;;;;;;;;;4.50;4.50;;;;;14.94;78.36;96640.31;5114293;28;8816;-57
2023/10/20 04:17:42;;;;;;;;;6.20;4.80;;;;;14.92;78.82;96621.78;5114044;28;8836;-58
2023/10/20 04:20:15;;;;;;;;;5.25;5.00;;;;;14.91;79.30;96589.84;5113976;28;8816;-59
2023/10/20 04:22:43;;;;;;;;;6.25;6.25;;;;;14.88;79.25;96585.75;5114081;28;9477;-58
2023/10/20 04:25:12;;;;;;;;;6.00;6.00;;;;;14.86;79.34;96571.00;5113633;28;8847;-57
2023/10/20 04:27:46;;;;;;;;;4.50;4.00;;;;;14.84;78.50;96571.22;5113581;28;8808;-58
2023/10/20 04:52:52;;;;;;;;;5.50;5.50;;;;;14.79;79.49;96551.53;5116546;28;8852;-57
2023/10/20 04:58:01;;;;;;;;;3.75;3.25;;;;;14.77;79.80;96538.34;5117480;28;8850;-58
2023/10/20 05:00:40;;;;;;;;;4.00;4.00;;;;;14.78;79.93;96523.91;5111292;28;8844;-57
2023/10/20 05:03:17;;;;;;;;;9.00;8.00;;;;;14.79;79.55;96516.72;5105586;28;8838;-58
2023/10/20 05:05:53;;;;;;;;;9.00;8.50;;;;;14.78;79.45;96497.13;5101430;28;8837;-57
2023/10/20 05:08:23;;;;;;;;;8.00;6.75;;;;;14.80;79.68;96494.22;5111885;28;8824;-57
2023/10/20 05:10:52;;;;;;;;;3.75;3.75;;;;;14.78;79.58;96490.94;5117998;28;8999;-58
2023/10/20 05:13:19;;;;;;;;;9.00;8.00;;;;;14.77;79.87;96484.78;5118007;28;8832;-57
2023/10/20 05:15:48;;;;;;;;;6.25;6.00;;;;;14.76;80.19;96487.69;5118011;28;8820;-58
2023/10/20 05:18:15;;;;;;;;;10.50;9.50;;;;;14.76;79.92;96490.38;5117834;28;8838;-60
2023/10/20 05:20:45;;;;;;;;;8.50;8.00;;;;;14.75;80.10;96481.53;5117423;28;8838;-58
2023/10/20 05:23:14;;;;;;;;;8.50;8.00;;;;;14.74;79.90;96471.03;5117458;28;8843;-57
2023/10/20 05:25:42;;;;;;;;;8.75;6.50;;;;;14.73;79.75;96454.13;5117247;28;8828;-59
2023/10/20 05:28:10;;;;;;;;;5.50;4.00;;;;;14.72;80.44;96449.84;5117007;28;8824;-57
2023/10/20 05:30:37;;;;;;;;;8.00;8.00;;;;;14.72;80.47;96454.41;5117184;28;8842;-58
2023/10/20 05:33:05;;;;;;;;;5.50;5.50;;;;;14.72;79.90;96457.06;5116794;28;8874;-58
2023/10/20 05:35:33;;;;;;;;;6.00;6.00;;;;;14.70;79.87;96441.22;5116753;28;8854;-59
2023/10/20 05:38:01;;;;;;;;;9.00;6.25;;;;;14.71;80.41;96434.81;5116480;28;8834;-57
2023/10/20 05:40:29;;;;;;;;;9.00;8.50;;;;;14.71;79.99;96431.34;5116761;28;8905;-58
2023/10/20 05:42:56;;;;;;;;;6.00;6.00;;;;;14.71;80.04;96434.03;5116350;28;8841;-57
2023/10/20 05:45:24;;;;;;;;;9.00;9.00;;;;;14.70;80.55;96441.22;5115852;28;8839;-57
2023/10/20 05:47:53;;;;;;;;;11.75;10.50;;;;;14.71;79.79;96434.81;5115646;28;8846;-56
2023/10/20 05:50:21;;;;;;;;;9.00;9.00;;;;;14.71;80.18;96429.47;5115192;28;8844;-59
2023/10/20 05:52:48;;;;;;;;;6.75;6.75;;;;;14.72;80.34;96422.25;5115473;28;8812;-59
2023/10/20 05:55:16;;;;;;;;;8.50;7.25;;;;;14.71;80.24;96416.06;5114289;28;8834;-59
2023/10/20 05:57:45;;;;;;;;;10.25;8.00;;;;;14.71;79.76;96409.91;5114953;28;8856;-60
2023/10/20 06:00:15;;;;;;;;;6.50;6.00;;;;;14.71;79.96;96400.00;5115617;28;8816;-57
2023/10/20 06:02:43;;;;;;;;;9.00;9.00;;;;;14.71;80.57;96397.31;5114892;28;8835;-57
2023/10/20 06:05:10;;;;;;;;;12.00;9.75;;;;;14.70;80.14;96398.38;5115409;28;8832;-57
2023/10/20 06:07:38;;;;;;;;;11.00;10.00;;;;;14.69;80.27;96391.41;5114119;28;8847;-57
2023/10/20 06:10:06;;;;;;;;;9.00;8.50;;;;;14.70;80.46;96410.94;5114117;28;8941;-58
2023/10/20 06:12:34;;;;;;;;;9.50;8.00;;;;;14.68;80.60;96416.56;5114615;28;8874;-59
2023/10/20 06:15:02;;;;;;;;;13.75;12.50;;;;;14.69;80.67;96420.03;5114983;28;8920;-58
2023/10/20 06:17:30;;;;;;;;;12.50;10.00;;;;;14.67;80.44;96409.56;5115410;28;8990;-56
2023/10/20 06:20:04;;;;;;;;;9.25;9.25;;;;;14.68;80.87;96411.19;5114881;28;8851;-58
2023/10/20 06:22:32;;;;;;;;;14.50;12.50;;;;;14.67;80.31;96404.22;5114787;28;9552;-58
2023/10/20 06:25:00;;;;;;;;;10.00;10.00;;;;;14.65;80.28;96397.47;5114839;28;8855;-57
2023/10/20 06:27:28;;;;;;;;;14.50;12.25;;;;;14.65;81.13;96395.56;5115462;28;8861;-58
2023/10/20 06:30:01;;;;;;;;;12.00;11.50;;;;;14.64;80.61;96393.94;5115447;28;9532;-58
2023/10/20 06:32:32;;;;;;;;;12.00;12.00;;;;;14.64;80.55;96393.16;5115820;28;8894;-58
2023/10/20 06:35:00;;;;;;;;;12.75;11.50;;;;;14.62;80.71;96384.50;5115915;28;8816;-58
2023/10/20 06:37:35;;;;;;;;;7.50;7.50;;;;;14.61;80.55;96378.38;5116088;28;8824;-57
2023/10/20 06:40:04;;;;;;;;;9.25;8.50;;;;;14.61;80.56;96374.84;5116326;28;8857;-57
2023/10/20 06:42:32;;;;;;;;;12.50;12.00;;;;;14.60;80.48;96387.44;5115810;28;8828;-57
2023/10/20 06:45:01;;;;;;;;;12.75;10.00;;;;;14.61;80.45;96380.22;5116010;28;8812;-56
2023/10/20 06:47:29;;;;;;;;;14.00;13.50;;;;;14.60;80.83;96378.59;5115616;28;8820;-58
2023/10/20 06:49:57;;;;;;;;;12.50;12.25;;;;;14.59;80.41;96371.59;5115516;28;8843;-57
2023/10/20 06:52:25;;;;;;;;;14.75;13.50;;;;;14.59;81.04;96376.97;5115176;28;8844;-59
2023/10/20 06:54:56;;;;;;;;;9.75;8.50;;;;;14.58;80.58;96380.69;5115232;28;8839;-58
2023/10/20 06:57:44;;;;;;;;;10.50;9.50;;;;;14.57;80.78;96387.09;5114380;28;8844;-58
2023/10/20 07:00:17;;;;;;;;;15.00;14.75;;;;;14.56;80.69;96386.28;5114239;28;8862;-57
2023/10/20 07:02:45;;;;;;;;;10.25;10.00;;;;;14.56;81.16;96391.63;5114233;28;8954;-58
2023/10/20 07:05:14;;;;;;;;;13.00;10.50;;;;;14.56;80.78;96394.31;5114016;28;8824;-58
2023/10/20 07:07:42;;;;;;;;;13.00;12.75;;;;;14.56;81.02;96372.09;5114654;28;8844;-59
2023/10/20 07:10:10;;;;;;;;;12.00;9.00;;;;;14.55;81.03;96370.44;5114878;28;8832;-59
2023/10/20 07:12:38;;;;;;;;;14.50;12.75;;;;;14.55;80.81;96370.44;5115117;28;8831;-59
2023/10/20 07:15:06;;;;;;;;;10.00;10.00;;;;;14.55;80.64;96362.41;5115102;28;8820;-57
2023/10/20 07:17:34;;;;;;;;;12.25;11.25;;;;;14.54;81.18;96360.78;5114673;28;8840;-57
2023/10/20 07:20:04;;;;;;;;;8.00;7.00;;;;;14.54;81.33;96376.84;5114901;28;8835;-58
2023/10/20 07:22:33;;;;;;;;;12.25;11.00;;;;;14.55;81.55;96373.09;5115284;28;9486;-59
2023/10/20 07:25:00;;;;;;;;;13.00;12.00;;;;;14.56;81.10;96369.41;5114987;28;9509;-58
2023/10/20 07:27:28;;;;;;;;;9.50;9.00;;;;;14.56;80.79;96369.41;5114861;28;8835;-58
2023/10/20 07:29:57;;;;;;;;;9.00;9.00;;;;;14.56;80.81;96364.06;5115021;28;8843;-60
2023/10/20 07:32:25;;;;;;;;;12.50;12.50;;;;;14.55;80.65;96367.75;5114962;28;8831;-59
2023/10/20 07:34:52;;;;;;;;;12.75;12.50;;;;;14.55;80.81;96367.75;5114930;28;8843;-58
2023/10/20 07:37:20;;;;;;;;;8.00;8.00;;;;;14.53;81.40;96357.28;5114740;28;8824;-59
2023/10/20 07:39:52;;;;;;;;;9.25;9.00;;;;;14.52;80.91;96357.53;5114145;28;8836;-60
2023/10/20 07:42:20;;;;;;;;;9.00;7.00;;;;;14.53;81.01;96354.63;5114161;28;8828;-61
2023/10/20 07:44:48;;;;;;;;;9.00;8.50;;;;;14.51;81.67;96345.19;5113162;28;8828;-60
2023/10/20 07:47:16;;;;;;;;;7.00;7.00;;;;;14.51;81.40;96342.50;5113092;28;8916;-58
2023/10/20 07:49:45;;;;;;;;;14.75;10.50;;;;;14.51;81.26;96353.22;5112899;28;9763;-61
2023/10/20 07:52:13;;;;;;;;;7.00;6.75;;;;;14.52;81.24;96350.31;5113789;28;8847;-58
2023/10/20 07:54:40;;;;;;;;;9.25;8.75;;;;;14.52;80.85;96347.63;5113992;28;9824;-60
2023/10/20 07:57:09;;;;;;;;;9.75;9.25;;;;;14.53;81.44;96351.13;5113318;28;8948;-58
2023/10/20 07:59:37;;;;;;;;;12.50;11.50;;;;;14.53;81.47;96335.06;5113498;28;8897;-58
2023/10/20 08:02:05;;;;;;;;;6.75;6.25;;;;;14.52;81.36;96341.47;5113140;28;8828;-59
2023/10/20 08:04:33;;;;;;;;;10.50;9.50;;;;;14.51;81.54;96340.63;5113198;28;8913;-59
2023/10/20 08:07:02;;;;;;;;;10.25;10.25;;;;;14.49;81.09;96336.59;5112774;28;9517;-59
2023/10/20 08:09:30;;;;;;;;;10.00;10.00;;;;;14.48;81.13;96341.09;5113492;28;8828;-58
2023/10/20 08:11:59;;;;;;;;;13.25;11.75;;;;;14.50;81.56;96338.22;5112562;28;8835;-58
2023/10/20 08:14:27;;;;;;;;;10.50;9.50;;;;;14.50;81.15;96341.69;5112593;28;8839;-59
2023/10/20 08:16:54;;;;;;;;;11.00;9.50;;;;;14.50;81.12;96341.69;5113581;28;8909;-58
2023/10/20 08:19:25;;;;;;;;;10.50;10.00;;;;;14.51;81.22;96337.16;5113364;28;8854;-58
2023/10/20 08:21:52;;;;;;;;;8.50;8.50;;;;;14.51;81.42;96337.16;5113192;28;8832;-58
2023/10/20 08:24:20;;;;;;;;;12.25;10.25;;;;;14.53;81.08;96337.72;5112249;28;8848;-58
2023/10/20 08:26:48;;;;;;;;;10.50;9.75;;;;;14.54;81.17;96344.72;5112793;28;8835;-58
2023/10/20 08:29:16;;;;;;;;;4.50;4.00;;;;;14.56;81.61;96356.03;5113111;28;8824;-59
2023/10/20 08:31:45;;;;;;;;;9.00;9.00;;;;;14.59;81.62;96345.66;5112888;28;8839;-59
2023/10/20 08:34:13;;;;;;;;;9.50;9.50;;;;;14.62;81.30;96347.03;5112864;28;8828;-58
2023/10/20 08:36:41;;;;;;;;;9.00;7.00;;;;;14.66;81.64;96353.56;5112750;28;8827;-58
2023/10/20 08:39:19;;;;;;;;;7.00;6.50;;;;;14.70;80.90;96357.38;5112731;28;9581;-58
2023/10/20 08:41:49;;;;;;;;;9.50;9.00;;;;;14.73;80.81;96356.91;5113246;28;8851;-59
2023/10/20 08:44:17;;;;;;;;;6.50;5.00;;;;;14.76;81.08;96359.13;5113104;28;8888;-58
2023/10/20 08:46:45;;;;;;;;;9.75;9.00;;;;;14.80;81.13;96354.94;5113317;28;8820;-58
2023/10/20 08:49:13;;;;;;;;;9.00;8.00;;;;;14.82;81.11;96356.31;5112910;28;8835;-57
2023/10/20 08:51:43;;;;;;;;;8.00;7.00;;;;;14.85;80.97;96342.44;5113031;28;8851;-58
2023/10/20 08:54:13;;;;;;;;;9.25;8.50;;;;;14.88;80.66;96346.53;5112212;28;8850;-58
2023/10/20 08:56:42;;;;;;;;;12.00;10.75;;;;;14.89;80.96;96342.78;5111974;28;8893;-58
2023/10/20 08:59:10;;;;;;;;;7.00;6.75;;;;;14.87;81.13;96337.66;5112078;28;8854;-58
2023/10/20 09:01:38;;;;;;;;;9.25;6.50;;;;;14.86;80.92;96354.00;5112291;28;8823;-58
2023/10/20 09:04:06;;;;;;;;;8.00;6.50;;;;;14.84;80.84;96351.53;5112194;28;8836;-58
2023/10/20 09:06:34;;;;;;;;;8.00;8.00;;;;;14.84;81.05;96340.00;5113233;28;8946;-59
2023/10/20 09:09:05;;;;;;;;;8.50;7.50;;;;;14.80;81.55;96353.03;5113081;28;8795;-57
2023/10/20 09:11:33;;;;;;;;;9.25;7.00;;;;;14.80;81.26;96361.09;5113669;28;8836;-58
2023/10/20 09:14:03;;;;;;;;;7.75;7.75;;;;;14.79;80.95;96364.03;5112867;28;8840;-58
2023/10/20 09:16:31;;;;;;;;;10.00;9.00;;;;;14.80;81.03;96361.09;5113190;28;8828;-59
2023/10/20 09:19:00;;;;;;;;;9.00;7.00;;;;;14.80;81.43;96357.59;5113417;28;8950;-59
2023/10/20 09:21:29;;;;;;;;;10.00;10.00;;;;;14.78;81.16;96352.47;5113485;28;9529;-58
2023/10/20 09:23:59;;;;;;;;;11.00;9.00;;;;;14.75;81.39;96361.00;5113908;28;9563;-58
2023/10/20 09:26:30;;;;;;;;;7.00;6.25;;;;;14.72;81.28;96353.41;5113796;28;8823;-58
2023/10/20 09:28:59;;;;;;;;;11.50;11.00;;;;;14.70;81.61;96349.34;5113847;28;8866;-61
2023/10/20 09:31:28;;;;;;;;;8.00;7.00;;;;;14.68;81.33;96346.91;5115399;28;9556;-59
2023/10/20 09:36:40;;;;;;;;;11.00;9.25;;;;;14.65;81.77;96346.56;5117246;28;8832;-58
2023/10/20 09:39:11;;;;;;;;;7.00;7.00;;;;;14.64;81.70;96337.72;5117094;28;8968;-59
2023/10/20 09:41:39;;;;;;;;;14.25;14.00;;;;;14.64;82.00;96339.59;5117413;28;8862;-61
2023/10/20 09:44:08;;;;;;;;;11.50;11.50;;;;;14.64;81.31;96345.75;5117279;28;8848;-59
2023/10/20 09:46:38;;;;;;;;;3.50;3.00;;;;;14.67;81.43;96344.47;5116549;28;8840;-59
2023/10/20 09:49:08;;;;;;;;;11.50;10.00;;;;;14.68;81.91;96336.19;5116333;28;8834;-59
2023/10/20 09:51:36;;;;;;;;;7.00;7.00;;;;;14.69;81.70;96340.50;5116599;28;8844;-58
2023/10/20 09:54:05;;;;;;;;;9.75;8.50;;;;;14.70;81.67;96343.97;5116552;28;8816;-59
2023/10/20 09:56:32;;;;;;;;;7.00;6.75;;;;;14.68;81.92;96336.19;5115977;28;9521;-60
2023/10/20 09:59:00;;;;;;;;;12.50;12.00;;;;;14.68;81.51;96340.72;5116368;28;8958;-58
2023/10/20 10:01:30;;;;;;;;;8.00;7.00;;;;;14.67;81.92;96337.25;5116658;28;8842;-58
2023/10/20 10:03:58;;;;;;;;;10.00;9.75;;;;;14.68;81.75;96338.88;5116758;28;8836;-60
2023/10/20 10:06:26;;;;;;;;;8.00;7.00;;;;;14.71;81.96;96346.44;5116308;28;8831;-60
2023/10/20 10:08:54;;;;;;;;;7.50;6.50;;;;;14.73;81.44;96349.69;5116490;28;8851;-59
2023/10/20 10:11:22;;;;;;;;;6.00;5.50;;;;;14.76;81.59;96354.59;5115181;28;8847;-58
2023/10/20 10:13:49;;;;;;;;;6.00;5.50;;;;;14.78;81.16;96357.00;5115219;28;8840;-58
2023/10/20 10:16:17;;;;;;;;;3.00;3.00;;;;;14.79;81.28;96342.59;5115456;28;8843;-59
2023/10/20 10:18:46;;;;;;;;;4.50;4.50;;;;;14.81;81.69;96330.56;5114962;28;8843;-58
2023/10/20 10:21:14;;;;;;;;;11.25;9.00;;;;;14.86;81.16;96327.22;5114420;28;8851;-58
2023/10/20 10:23:42;;;;;;;;;10.00;10.00;;;;;14.89;81.57;96327.53;5114686;28;8823;-58
2023/10/20 10:26:10;;;;;;;;;7.50;7.00;;;;;14.94;81.22;96324.94;5114924;28;8954;-60
2023/10/20 10:28:38;;;;;;;;;4.00;4.00;;;;;15.00;80.53;96323.16;5115023;28;8954;-60
2023/10/20 10:31:06;;;;;;;;;6.50;5.50;;;;;15.03;81.00;96318.16;5115466;28;8835;-59
2023/10/20 10:33:35;;;;;;;;;10.00;9.00;;;;;15.06;81.32;96308.81;5115063;28;8839;-58
2023/10/20 10:36:04;;;;;;;;;6.50;6.50;;;;;15.08;80.63;96304.88;5114315;28;8839;-57
2023/10/20 10:38:32;;;;;;;;;5.00;5.00;;;;;15.10;80.42;96299.28;5113965;28;8824;-59
2023/10/20 10:41:00;;;;;;;;;5.50;5.50;;;;;15.11;80.76;96288.28;5114570;28;8852;-60
2023/10/20 10:43:30;;;;;;;;;6.75;6.00;;;;;15.11;80.15;96282.13;5114670;28;8904;-59
2023/10/20 10:45:58;;;;;;;;;9.00;7.50;;;;;15.10;80.63;96280.50;5114498;28;8908;-60
2023/10/20 10:48:28;;;;;;;;;5.00;5.00;;;;;15.09;80.87;96278.91;5114113;28;8820;-57
2023/10/20 10:50:56;;;;;;;;;7.00;6.50;;;;;15.11;80.88;96274.09;5114803;28;8828;-59
2023/10/20 10:53:26;;;;;;;;;6.25;6.00;;;;;15.14;80.74;96273.59;5114967;28;8985;-60
2023/10/20 10:55:55;;;;;;;;;6.00;6.00;;;;;15.17;81.17;96270.47;5114963;28;9532;-58
2023/10/20 10:58:25;;;;;;;;;7.00;6.25;;;;;15.21;81.20;96266.22;5114637;28;8816;-58
2023/10/20 11:00:54;;;;;;;;;4.50;4.50;;;;;15.23;80.21;96264.94;5113482;28;8848;-58
2023/10/20 11:03:22;;;;;;;;;9.50;9.50;;;;;15.25;80.67;96256.66;5113494;28;8823;-60
2023/10/20 11:05:54;;;;;;;;;6.00;5.00;;;;;15.27;80.46;96265.28;5114064;28;8832;-59
2023/10/20 11:08:22;;;;;;;;;9.00;6.25;;;;;15.27;80.72;96251.88;5114093;28;8819;-58
2023/10/20 11:10:50;;;;;;;;;6.75;5.50;;;;;15.27;80.66;96249.19;5114804;28;8978;-58
2023/10/20 11:13:20;;;;;;;;;6.75;6.50;;;;;15.26;80.88;96248.38;5114128;28;8828;-59
2023/10/20 11:15:48;;;;;;;;;8.00;7.00;;;;;15.26;80.85;96251.03;5114249;28;8844;-60
2023/10/20 11:18:16;;;;;;;;;6.75;5.50;;;;;15.23;80.84;96259.59;5114248;28;8832;-60
2023/10/20 11:20:46;;;;;;;;;6.20;5.20;;;;;15.19;80.88;96249.59;5114430;28;8823;-58
2023/10/20 11:23:14;;;;;;;;;4.00;4.00;;;;;15.16;80.63;96250.09;5113412;28;8863;-60
2023/10/20 11:25:42;;;;;;;;;6.00;6.00;;;;;15.15;80.83;96243.91;5113227;28;8815;-58
2023/10/20 11:28:11;;;;;;;;;4.00;4.00;;;;;15.18;80.72;96256.00;5112687;28;8844;-59
2023/10/20 11:30:41;;;;;;;;;3.00;3.00;;;;;15.20;81.16;96253.88;5113745;28;8828;-58
2023/10/20 11:33:10;;;;;;;;;4.40;4.00;;;;;15.15;80.82;96262.66;5114172;28;8820;-58
2023/10/20 11:35:42;;;;;;;;;6.00;5.50;;;;;15.11;80.80;96255.34;5114054;28;8920;-57
2023/10/20 11:38:10;;;;;;;;;4.50;4.00;;;;;15.06;81.55;96257.91;5114391;28;8819;-59
2023/10/20 11:40:38;;;;;;;;;6.60;6.40;;;;;15.02;81.53;96254.91;5114386;28;8892;-58
2023/10/20 11:43:06;;;;;;;;;6.25;6.00;;;;;15.01;80.68;96272.03;5114001;28;8812;-58
2023/10/20 11:45:34;;;;;;;;;3.00;1.00;;;;;14.98;80.92;96269.84;5113886;28;8828;-60
2023/10/20 11:48:02;;;;;;;;;4.50;4.00;;;;;14.97;81.24;96262.88;5114395;28;8985;-59
2023/10/20 11:50:31;;;;;;;;;6.50;4.00;;;;;14.94;81.21;96254.50;5113985;28;8828;-59
2023/10/20 11:52:59;;;;;;;;;2.60;1.00;;;;;14.92;81.72;96238.66;5113516;28;8836;-57
2023/10/20 11:55:27;;;;;;;;;6.60;4.20;;;;;14.91;81.60;96234.34;5113132;28;8854;-58
2023/10/20 11:57:55;;;;;;;;;3.80;3.80;;;;;14.89;81.09;96228.41;5114804;28;8982;-59
2023/10/20 12:00:24;;;;;;;;;5.20;4.80;;;;;14.87;81.77;96224.34;5113561;28;8860;-59
2023/10/20 12:02:52;;;;;;;;;3.20;3.00;;;;;14.84;81.85;96227.50;5113485;28;8844;-58
2023/10/20 12:05:20;;;;;;;;;6.80;6.00;;;;;14.82;81.61;96217.03;5113596;28;8820;-58
2023/10/20 12:07:49;;;;;;;;;5.60;5.60;;;;;14.84;81.72;96212.25;5113733;28;8964;-58
2023/10/20 12:10:17;;;;;;;;;1.80;1.80;;;;;14.84;82.03;96206.06;5112396;28;8843;-59
2023/10/20 12:12:47;;;;;;;;;5.50;5.50;;;;;14.85;81.31;96203.16;5111199;28;9778;-59